createdAt,value
2023-04-22T00:01:02.336Z,21.10
2023-04-22T00:03:31.430Z,21.30
2023-04-22T00:06:00.087Z,21.50
2023-04-22T00:08:28.551Z,20.90
2023-04-22T00:10:57.135Z,21.40
2023-04-22T00:13:25.370Z,21.90
2023-04-22T00:15:55.005Z,22.00
2023-04-22T00:18:23.231Z,22.20
2023-04-22T00:20:51.380Z,22.40
2023-04-22T00:23:19.626Z,22.60
2023-04-22T00:25:47.865Z,22.40
2023-04-22T00:28:18.437Z,22.60
2023-04-22T00:30:46.798Z,21.90
2023-04-22T00:33:16.341Z,21.70
2023-04-22T00:35:45.228Z,21.90
2023-04-22T00:38:13.434Z,22.00
2023-04-22T00:40:41.771Z,22.30
2023-04-22T00:43:10.504Z,22.30
2023-04-22T00:45:38.829Z,21.70
2023-04-22T00:48:07.121Z,20.90
2023-04-22T00:50:36.691Z,20.60
2023-04-22T00:53:07.510Z,21.00
2023-04-22T00:55:36.315Z,21.50
2023-04-22T00:58:05.397Z,21.70
2023-04-22T01:00:33.932Z,21.10
2023-04-22T01:03:04.133Z,21.50
2023-04-22T01:05:32.980Z,21.60
2023-04-22T01:08:03.344Z,21.80
2023-04-22T01:10:31.606Z,21.70
2023-04-22T01:12:59.898Z,22.00
2023-04-22T01:15:28.700Z,21.30
2023-04-22T01:17:57.907Z,21.70
2023-04-22T01:20:30.445Z,21.60
2023-04-22T01:23:03.879Z,21.60
2023-04-22T01:25:34.563Z,21.10
2023-04-22T01:28:03.928Z,21.60
2023-04-22T01:30:32.950Z,21.60
2023-04-22T01:33:01.617Z,21.60
2023-04-22T01:35:36.666Z,21.90
2023-04-22T01:38:05.299Z,21.70
2023-04-22T01:40:35.849Z,21.70
2023-04-22T01:43:04.268Z,22.00
2023-04-22T01:45:32.623Z,21.30
2023-04-22T01:48:00.913Z,20.80
2023-04-22T01:50:29.310Z,20.90
2023-04-22T01:52:58.275Z,20.70
2023-04-22T01:55:29.469Z,20.30
2023-04-22T01:57:58.982Z,20.80
2023-04-22T02:00:27.233Z,21.00
2023-04-22T02:02:55.507Z,21.10
2023-04-22T02:05:25.430Z,21.30
2023-04-22T02:07:54.293Z,21.40
2023-04-22T02:10:22.817Z,20.90
2023-04-22T02:12:51.123Z,20.90
2023-04-22T02:15:20.989Z,21.20
2023-04-22T02:17:49.302Z,20.80
2023-04-22T02:20:18.727Z,21.00
2023-04-22T02:22:47.310Z,21.00
2023-04-22T02:25:15.547Z,21.10
2023-04-22T02:27:43.933Z,21.40
2023-04-22T02:30:13.404Z,20.90
2023-04-22T02:32:43.071Z,20.30
2023-04-22T02:35:12.062Z,20.60
2023-04-22T02:37:40.434Z,20.30
2023-04-22T02:40:09.831Z,20.60
2023-04-22T02:42:38.034Z,20.90
2023-04-22T02:45:07.444Z,21.10
2023-04-22T02:47:36.876Z,21.30
2023-04-22T02:50:08.739Z,21.30
2023-04-22T02:52:36.981Z,21.30
2023-04-22T02:55:05.670Z,21.40
2023-04-22T02:57:34.015Z,21.30
2023-04-22T03:00:02.422Z,21.50
2023-04-22T03:02:30.929Z,21.30
2023-04-22T03:05:15.976Z,21.30
2023-04-22T03:07:44.524Z,20.40
2023-04-22T03:10:13.094Z,20.00
2023-04-22T03:12:42.233Z,20.20
2023-04-22T03:15:11.085Z,20.40
2023-04-22T03:17:39.334Z,20.60
2023-04-22T03:20:12.705Z,20.80
2023-04-22T03:22:42.552Z,20.90
2023-04-22T03:25:13.389Z,20.90
2023-04-22T03:27:46.270Z,20.60
2023-04-22T03:30:14.684Z,20.10
2023-04-22T03:32:43.139Z,19.80
2023-04-22T03:35:33.882Z,19.70
2023-04-22T03:38:04.510Z,19.40
2023-04-22T03:40:35.454Z,19.50
2023-04-22T03:43:10.099Z,19.80
2023-04-22T03:45:39.185Z,20.10
2023-04-22T03:48:17.250Z,20.30
2023-04-22T03:50:49.695Z,20.50
2023-04-22T03:53:19.799Z,20.60
2023-04-22T03:55:48.174Z,20.50
2023-04-22T03:58:17.415Z,20.50
2023-04-22T04:00:47.343Z,20.70
2023-04-22T04:03:19.339Z,20.20
2023-04-22T04:05:51.516Z,20.30
2023-04-22T04:08:21.321Z,20.30
2023-04-22T04:10:50.384Z,20.30
2023-04-22T04:13:19.102Z,20.50
2023-04-22T04:16:02.529Z,20.70
2023-04-22T04:18:32.693Z,20.90
2023-04-22T04:21:01.747Z,21.00
2023-04-22T04:23:34.422Z,21.00
2023-04-22T04:26:05.788Z,21.10
2023-04-22T04:28:37.167Z,21.30
2023-04-22T04:31:06.361Z,21.40
2023-04-22T04:33:36.937Z,21.60
2023-04-22T04:36:05.650Z,21.60
2023-04-22T04:38:37.850Z,21.30
2023-04-22T04:41:08.680Z,21.10
2023-04-22T04:43:37.784Z,21.20
2023-04-22T04:46:17.657Z,21.30
2023-04-22T04:48:48.714Z,21.50
2023-04-22T04:51:19.651Z,21.80
2023-04-22T04:53:57.906Z,22.10
2023-04-22T04:56:30.906Z,22.30
2023-04-22T04:58:59.611Z,22.60
2023-04-22T05:01:29.474Z,22.80
2023-04-22T05:04:04.210Z,23.00
2023-04-22T05:06:33.804Z,23.10
2023-04-22T05:09:09.255Z,23.20
2023-04-22T05:11:38.267Z,23.10
2023-04-22T05:14:13.496Z,23.30
2023-04-22T05:16:44.224Z,23.50
2023-04-22T05:19:12.528Z,23.70
2023-04-22T05:21:40.843Z,23.80
2023-04-22T05:24:10.607Z,24.00
2023-04-22T05:26:38.959Z,24.30
2023-04-22T05:29:14.174Z,24.50
2023-04-22T05:31:42.661Z,24.60
2023-04-22T05:34:11.964Z,24.90
2023-04-22T05:36:40.682Z,25.10
2023-04-22T05:39:10.864Z,25.30
2023-04-22T05:41:40.467Z,25.40
2023-04-22T05:44:11.477Z,25.40
2023-04-22T05:46:40.005Z,25.50
2023-04-22T05:49:08.506Z,25.70
2023-04-22T05:51:55.084Z,25.90
2023-04-22T05:54:30.016Z,25.80
2023-04-22T05:56:58.468Z,25.90
2023-04-22T05:59:27.523Z,25.90
2023-04-22T06:01:56.531Z,26.20
2023-04-22T06:04:25.649Z,26.30
2023-04-22T06:06:54.473Z,26.40
2023-04-22T06:09:23.333Z,26.50
2023-04-22T06:11:53.867Z,26.80
2023-04-22T06:14:22.164Z,26.80
2023-04-22T06:16:52.692Z,26.70
2023-04-22T06:19:21.158Z,27.00
2023-04-22T06:21:49.337Z,27.00
2023-04-22T06:24:18.162Z,27.10
2023-04-22T06:26:46.529Z,26.80
2023-04-22T06:29:18.071Z,27.10
2023-04-22T06:31:46.649Z,27.40
2023-04-22T06:34:14.853Z,27.30
2023-04-22T06:36:45.560Z,27.60
2023-04-22T06:39:13.750Z,27.80
2023-04-22T06:41:50.142Z,27.90
2023-04-22T06:44:41.438Z,27.90
2023-04-22T06:47:45.369Z,28.10
2023-04-22T06:50:21.504Z,28.40
2023-04-22T06:52:55.488Z,28.50
2023-04-22T06:55:28.254Z,28.60
2023-04-22T06:57:56.781Z,28.80
2023-04-22T07:00:26.750Z,28.90
2023-04-22T07:02:55.284Z,29.00
2023-04-22T07:05:23.984Z,29.10
2023-04-22T07:07:52.442Z,29.20
2023-04-22T07:10:26.173Z,28.60
2023-04-22T07:13:13.158Z,29.00
2023-04-22T07:15:42.789Z,29.20
2023-04-22T07:18:10.996Z,29.40
2023-04-22T07:20:39.285Z,29.40
2023-04-22T07:23:07.506Z,28.70
2023-04-22T07:25:38.396Z,29.20
2023-04-22T07:28:08.576Z,29.40
2023-04-22T07:30:36.939Z,29.50
2023-04-22T07:33:06.718Z,29.60
2023-04-22T07:35:35.001Z,29.70
2023-04-22T07:38:03.430Z,29.50
2023-04-22T07:40:31.662Z,29.70
2023-04-22T07:42:59.839Z,29.60
2023-04-22T07:45:28.194Z,29.20
2023-04-22T07:47:56.537Z,29.70
2023-04-22T07:50:26.292Z,29.80
2023-04-22T07:52:57.337Z,29.90
2023-04-22T07:55:25.675Z,30.10
2023-04-22T07:57:53.858Z,30.10
2023-04-22T08:00:22.085Z,30.30
2023-04-22T08:02:50.980Z,29.90
2023-04-22T08:05:19.780Z,30.30
2023-04-22T08:07:49.409Z,30.60
2023-04-22T08:10:17.637Z,30.90
2023-04-22T08:12:46.008Z,31.00
2023-04-22T08:15:14.204Z,31.00
2023-04-22T08:17:42.419Z,30.90
2023-04-22T08:20:11.102Z,31.10
2023-04-22T08:22:39.824Z,31.20
2023-04-22T08:25:10.366Z,31.30
2023-04-22T08:27:38.741Z,31.40
2023-04-22T08:30:09.112Z,31.30
2023-04-22T08:32:37.473Z,31.60
2023-04-22T08:35:06.963Z,31.30
2023-04-22T08:37:39.518Z,31.50
2023-04-22T08:40:10.492Z,31.50
2023-04-22T08:42:39.199Z,31.60
2023-04-22T08:45:09.752Z,31.70
2023-04-22T08:47:39.123Z,31.70
2023-04-22T08:50:09.741Z,31.10
2023-04-22T08:52:38.934Z,31.00
2023-04-22T08:55:09.803Z,31.50
2023-04-22T08:57:40.492Z,31.80
2023-04-22T09:00:09.915Z,32.00
2023-04-22T09:02:39.271Z,31.90
2023-04-22T09:05:10.117Z,31.30
2023-04-22T09:07:40.958Z,31.50
2023-04-22T09:10:11.952Z,30.80
2023-04-22T09:12:42.368Z,31.40
2023-04-22T09:15:11.599Z,31.00
2023-04-22T09:17:41.289Z,31.10
2023-04-22T09:20:10.055Z,31.50
2023-04-22T09:22:41.057Z,31.20
2023-04-22T09:25:20.894Z,31.50
2023-04-22T09:27:52.792Z,31.60
2023-04-22T09:30:25.512Z,31.50
2023-04-22T09:32:55.054Z,31.40
2023-04-22T09:35:30.838Z,30.60
2023-04-22T09:38:01.214Z,30.90
2023-04-22T09:40:32.181Z,31.20
2023-04-22T09:43:03.587Z,31.00
2023-04-22T09:45:35.310Z,31.10
2023-04-22T09:48:07.450Z,31.40
2023-04-22T09:50:35.819Z,31.60
2023-04-22T09:53:05.943Z,31.70
2023-04-22T09:55:37.676Z,31.90
2023-04-22T09:58:08.845Z,31.60
2023-04-22T10:00:40.521Z,31.30
2023-04-22T10:03:10.861Z,31.50
2023-04-22T10:05:39.691Z,31.40
2023-04-22T10:08:09.553Z,31.60
2023-04-22T10:10:40.226Z,31.80
2023-04-22T10:13:09.877Z,31.50
2023-04-22T10:15:41.444Z,31.80
2023-04-22T10:18:15.977Z,31.80
2023-04-22T10:20:45.736Z,32.00
2023-04-22T10:23:16.851Z,32.10
2023-04-22T10:25:48.842Z,32.20
2023-04-22T10:28:18.620Z,32.30
2023-04-22T10:30:49.859Z,32.10
2023-04-22T10:33:36.985Z,32.30
2023-04-22T10:36:10.817Z,32.10
2023-04-22T10:38:40.087Z,31.90
2023-04-22T10:41:15.264Z,32.20
2023-04-22T10:43:45.512Z,32.40
2023-04-22T10:46:47.884Z,32.40
2023-04-22T10:49:21.596Z,32.30
2023-04-22T10:51:51.525Z,32.40
2023-04-22T10:54:58.027Z,32.60
2023-04-22T10:57:36.201Z,32.70
2023-04-22T11:03:12.410Z,32.60
2023-04-22T11:05:41.811Z,32.60
2023-04-22T11:08:16.485Z,32.60
2023-04-22T11:10:47.410Z,32.70
2023-04-22T11:13:18.881Z,32.70
2023-04-22T11:15:49.007Z,32.60
2023-04-22T11:18:20.617Z,32.90
2023-04-22T11:20:49.872Z,32.80
2023-04-22T11:23:23.242Z,32.70
2023-04-22T11:25:57.532Z,32.90
2023-04-22T11:28:27.753Z,32.90
2023-04-22T11:31:03.308Z,32.80
2023-04-22T11:33:32.991Z,32.40
2023-04-22T11:36:01.312Z,32.20
2023-04-22T11:38:29.841Z,32.30
2023-04-22T11:40:58.405Z,32.60
2023-04-22T11:43:28.048Z,32.20
2023-04-22T11:45:58.013Z,32.40
2023-04-22T11:48:26.725Z,32.70
2023-04-22T11:51:10.393Z,32.70
2023-04-22T11:53:41.142Z,32.50
2023-04-22T11:56:09.420Z,32.00
2023-04-22T11:58:41.418Z,32.50
2023-04-22T12:01:16.905Z,32.70
2023-04-22T12:03:45.334Z,32.60
2023-04-22T12:06:15.686Z,32.50
2023-04-22T12:08:44.925Z,32.50
2023-04-22T12:11:13.757Z,32.70
2023-04-22T12:13:46.204Z,32.70
2023-04-22T12:16:18.644Z,32.90
2023-04-22T12:18:51.297Z,32.90
2023-04-22T12:21:22.303Z,32.00
2023-04-22T12:23:53.211Z,32.40
2023-04-22T12:26:26.642Z,32.30
2023-04-22T12:28:58.292Z,31.40
2023-04-22T12:31:27.148Z,32.00
2023-04-22T12:33:55.697Z,32.20
2023-04-22T12:36:26.155Z,32.20
2023-04-22T12:38:54.400Z,31.60
2023-04-22T12:41:23.589Z,32.10
2023-04-22T12:43:52.532Z,32.30
2023-04-22T12:46:22.391Z,32.40
2023-04-22T12:48:50.739Z,32.30
2023-04-22T12:51:18.950Z,32.70
2023-04-22T12:53:47.195Z,32.70
2023-04-22T12:56:15.561Z,32.90
2023-04-22T12:58:43.750Z,33.00
2023-04-22T13:01:11.950Z,33.10
2023-04-22T13:03:41.866Z,33.20
2023-04-22T13:06:10.345Z,33.30
2023-04-22T13:08:38.696Z,33.10
2023-04-22T13:11:07.152Z,33.30
2023-04-22T13:13:35.639Z,33.40
2023-04-22T13:16:03.954Z,33.30
2023-04-22T13:18:32.602Z,32.50
2023-04-22T13:21:02.164Z,32.00
2023-04-22T13:23:30.817Z,31.80
2023-04-22T13:25:59.036Z,31.90
2023-04-22T13:28:27.219Z,32.00
2023-04-22T13:30:58.575Z,32.60
2023-04-22T13:33:26.861Z,32.20
2023-04-22T13:35:55.168Z,32.80
2023-04-22T13:38:24.741Z,33.00
2023-04-22T13:40:52.911Z,33.20
2023-04-22T13:43:21.085Z,32.90
2023-04-22T13:45:49.482Z,33.10
2023-04-22T13:48:17.697Z,33.20
2023-04-22T13:50:46.176Z,33.10
2023-04-22T13:53:15.459Z,32.90
2023-04-22T13:55:47.803Z,32.70
2023-04-22T13:58:16.042Z,32.30
2023-04-22T14:00:44.485Z,32.20
2023-04-22T14:03:12.922Z,32.60
2023-04-22T14:05:41.254Z,32.80
2023-04-22T14:08:09.448Z,33.00
2023-04-22T14:10:37.616Z,32.60
2023-04-22T14:13:09.856Z,33.00
2023-04-22T14:15:39.298Z,33.20
2023-04-22T14:18:07.628Z,33.40
2023-04-22T14:20:38.688Z,33.40
2023-04-22T14:23:07.189Z,33.40
2023-04-22T14:25:35.471Z,33.50
2023-04-22T14:28:04.003Z,33.50
2023-04-22T14:30:36.011Z,33.50
2023-04-22T14:33:06.948Z,32.80
2023-04-22T14:35:35.281Z,33.10
2023-04-22T14:38:05.148Z,33.20
2023-04-22T14:40:33.423Z,33.20
2023-04-22T14:43:09.066Z,33.10
2023-04-22T14:45:38.639Z,33.30
2023-04-22T14:48:07.139Z,33.20
2023-04-22T14:50:35.399Z,33.40
2023-04-22T14:53:04.119Z,33.50
2023-04-22T14:55:32.547Z,33.60
2023-04-22T14:58:00.805Z,33.50
2023-04-22T15:00:29.617Z,33.40
2023-04-22T15:02:59.375Z,33.30
2023-04-22T15:05:27.655Z,33.30
2023-04-22T15:07:58.989Z,33.30
2023-04-22T15:10:28.226Z,33.40
2023-04-22T15:12:56.404Z,33.40
2023-04-22T15:15:24.601Z,33.30
2023-04-22T15:17:52.892Z,33.30
2023-04-22T15:20:22.545Z,33.30
2023-04-22T15:22:50.772Z,33.30
2023-04-22T15:25:19.141Z,33.30
2023-04-22T15:27:47.966Z,33.30
2023-04-22T15:30:16.424Z,33.40
2023-04-22T15:32:44.636Z,33.30
2023-04-22T15:35:13.000Z,33.30
2023-04-22T15:37:42.552Z,33.20
2023-04-22T15:40:11.055Z,33.10
2023-04-22T15:42:39.279Z,33.30
2023-04-22T15:45:08.581Z,33.20
2023-04-22T15:47:37.439Z,33.20
2023-04-22T15:50:08.729Z,33.10
2023-04-22T15:52:38.391Z,33.30
2023-04-22T15:55:09.302Z,33.50
2023-04-22T15:57:37.539Z,33.80
2023-04-22T16:00:12.694Z,33.80
2023-04-22T16:02:54.929Z,33.80
2023-04-22T16:05:24.792Z,33.50
2023-04-22T16:07:53.706Z,33.50
2023-04-22T16:10:26.205Z,33.40
2023-04-22T16:12:57.419Z,33.60
2023-04-22T16:15:26.601Z,33.60
2023-04-22T16:17:54.838Z,33.70
2023-04-22T16:20:23.294Z,33.80
2023-04-22T16:22:51.574Z,34.00
2023-04-22T16:25:19.996Z,34.10
2023-04-22T16:27:49.669Z,34.00
2023-04-22T16:30:18.194Z,34.20
2023-04-22T16:32:46.411Z,33.80
2023-04-22T16:35:16.537Z,33.70
2023-04-22T16:37:44.836Z,33.50
2023-04-22T16:40:13.679Z,33.40
2023-04-22T16:42:42.049Z,33.20
2023-04-22T16:45:12.239Z,32.90
2023-04-22T16:47:40.589Z,32.80
2023-04-22T16:50:12.111Z,32.70
2023-04-22T16:52:40.445Z,32.60
2023-04-22T16:55:09.498Z,32.50
2023-04-22T16:57:37.688Z,32.40
2023-04-22T17:00:07.780Z,32.30
2023-04-22T17:02:37.634Z,32.20
2023-04-22T17:05:06.921Z,32.10
2023-04-22T17:07:35.139Z,32.00
2023-04-22T17:10:03.524Z,31.80
2023-04-22T17:12:31.965Z,31.70
2023-04-22T17:15:00.316Z,31.60
2023-04-22T17:17:28.549Z,31.40
2023-04-22T17:19:58.178Z,31.40
2023-04-22T17:22:26.972Z,31.40
2023-04-22T17:24:56.598Z,31.30
2023-04-22T17:27:24.859Z,31.20
2023-04-22T17:29:53.049Z,31.10
2023-04-22T17:32:21.291Z,31.00
2023-04-22T17:34:49.633Z,30.80
2023-04-22T17:37:19.215Z,30.60
2023-04-22T17:39:47.460Z,30.40
2023-04-22T17:42:16.244Z,30.30
2023-04-22T17:44:44.959Z,30.00
2023-04-22T17:47:13.227Z,29.90
2023-04-22T17:49:41.705Z,29.50
2023-04-22T17:52:10.111Z,29.30
2023-04-22T17:54:39.668Z,29.30
2023-04-22T17:57:07.856Z,29.30
2023-04-22T17:59:36.107Z,28.90
2023-04-22T18:02:04.807Z,28.90
2023-04-22T18:04:33.072Z,28.70
2023-04-22T18:07:01.524Z,28.40
2023-04-22T18:09:29.752Z,28.10
2023-04-22T18:11:59.558Z,27.90
2023-04-22T18:14:27.793Z,27.80
2023-04-22T18:16:59.137Z,27.80
2023-04-22T18:19:30.448Z,27.80
2023-04-22T18:22:00.283Z,27.70
2023-04-22T18:24:29.018Z,27.60
2023-04-22T18:26:57.208Z,27.40
2023-04-22T18:29:27.052Z,27.20
2023-04-22T18:31:55.284Z,27.00
2023-04-22T18:34:23.575Z,26.70
2023-04-22T18:36:51.840Z,26.70
2023-04-22T18:39:20.040Z,26.80
2023-04-22T18:41:48.364Z,26.70
2023-04-22T18:44:20.101Z,26.30
2023-04-22T18:46:50.363Z,26.10
2023-04-22T18:49:18.655Z,26.20
2023-04-22T18:51:49.153Z,25.80
2023-04-22T18:54:17.540Z,26.00
2023-04-22T18:56:46.058Z,25.80
2023-04-22T18:59:14.472Z,25.70
2023-04-22T19:01:42.848Z,25.40
2023-04-22T19:04:12.908Z,25.30
2023-04-22T19:06:41.405Z,25.50
2023-04-22T19:09:09.650Z,25.50
2023-04-22T19:11:37.894Z,25.10
2023-04-22T19:14:06.370Z,25.00
2023-04-22T19:16:37.012Z,25.00
2023-04-22T19:19:05.225Z,24.70
2023-04-22T19:21:35.893Z,24.90
2023-04-22T19:24:04.886Z,24.80
2023-04-22T19:26:33.133Z,24.70
2023-04-22T19:29:01.363Z,24.50
2023-04-22T19:31:30.233Z,24.60
2023-04-22T19:33:59.202Z,24.50
2023-04-22T19:36:28.165Z,24.10
2023-04-22T19:38:57.837Z,23.90
2023-04-22T19:41:28.983Z,24.20
2023-04-22T19:43:58.910Z,23.80
2023-04-22T19:46:27.289Z,24.00
2023-04-22T19:48:56.003Z,23.80
2023-04-22T19:51:24.766Z,23.80
2023-04-22T19:53:55.401Z,24.20
2023-04-22T19:56:25.759Z,23.80
2023-04-22T19:58:54.230Z,23.80
2023-04-22T20:01:22.780Z,23.80
2023-04-22T20:03:52.148Z,23.90
2023-04-22T20:06:22.744Z,24.20
2023-04-22T20:08:54.232Z,24.20
2023-04-22T20:11:25.942Z,24.00
2023-04-22T20:13:55.977Z,24.10
2023-04-22T20:16:25.089Z,23.90
2023-04-22T20:18:54.451Z,23.60
2023-04-22T20:21:22.882Z,23.60
2023-04-22T20:23:53.203Z,23.60
2023-04-22T20:26:22.279Z,23.70
2023-04-22T20:28:56.334Z,23.40
2023-04-22T20:31:24.945Z,23.50
2023-04-22T20:33:53.755Z,23.20
2023-04-22T20:36:22.443Z,23.50
2023-04-22T20:38:52.090Z,23.60
2023-04-22T20:41:20.698Z,23.60
2023-04-22T20:43:49.018Z,23.70
2023-04-22T20:46:20.756Z,23.70
2023-04-22T20:48:50.408Z,23.50
2023-04-22T20:51:19.063Z,23.60
2023-04-22T20:53:47.505Z,23.60
2023-04-22T20:56:15.696Z,23.60
2023-04-22T20:58:43.900Z,23.50
2023-04-22T21:01:16.149Z,23.60
2023-04-22T21:03:51.424Z,23.60
2023-04-22T21:06:21.590Z,23.40
2023-04-22T21:08:50.603Z,23.20
2023-04-22T21:11:19.500Z,23.50
2023-04-22T21:13:51.261Z,23.40
2023-04-22T21:16:24.118Z,23.10
2023-04-22T21:18:57.626Z,23.20
2023-04-22T21:21:31.348Z,23.00
2023-04-22T21:24:01.652Z,23.10
2023-04-22T21:26:30.769Z,22.90
2023-04-22T21:28:59.525Z,22.90
2023-04-22T21:31:28.116Z,23.20
2023-04-22T21:34:04.683Z,23.20
2023-04-22T21:36:33.068Z,23.20
2023-04-22T21:39:02.689Z,23.30
2023-04-22T21:41:31.005Z,23.20
2023-04-22T21:43:59.201Z,22.90
2023-04-22T21:46:27.408Z,23.10
2023-04-22T21:48:56.032Z,22.50
2023-04-22T21:51:27.053Z,22.50
2023-04-22T21:53:55.417Z,22.90
2023-04-22T21:56:23.644Z,22.70
2023-04-22T21:58:51.812Z,22.90
2023-04-22T22:01:20.019Z,22.90
2023-04-22T22:03:48.477Z,23.20
2023-04-22T22:06:16.807Z,22.80
2023-04-22T22:08:46.819Z,23.10
2023-04-22T22:11:27.485Z,23.30
2023-04-22T22:13:58.354Z,23.00
2023-04-22T22:16:28.228Z,22.90
2023-04-22T22:18:57.813Z,23.00
2023-04-22T22:21:26.220Z,22.90
2023-04-22T22:23:57.435Z,23.10
2023-04-22T22:26:26.203Z,23.20
2023-04-22T22:28:54.649Z,23.30
2023-04-22T22:31:22.853Z,23.10
2023-04-22T22:33:51.098Z,23.10
2023-04-22T22:36:19.763Z,23.20
2023-04-22T22:38:48.064Z,23.20
2023-04-22T22:41:17.647Z,22.70
2023-04-22T22:43:45.828Z,22.60
2023-04-22T22:46:14.262Z,22.60
2023-04-22T22:48:42.511Z,22.70
2023-04-22T22:51:18.366Z,22.90
2023-04-22T22:53:49.732Z,22.50
2023-04-22T22:56:20.969Z,22.50
2023-04-22T22:58:49.268Z,22.30
2023-04-22T23:01:17.572Z,22.40
2023-04-22T23:03:47.128Z,22.80
2023-04-22T23:06:15.579Z,22.80
2023-04-22T23:08:43.884Z,23.00
2023-04-22T23:11:12.486Z,23.00
2023-04-22T23:13:42.142Z,22.90
2023-04-22T23:16:10.355Z,23.00
2023-04-22T23:18:40.104Z,22.90
2023-04-22T23:21:08.587Z,23.00
2023-04-22T23:23:37.725Z,22.80
2023-04-22T23:26:07.736Z,22.90
2023-04-22T23:28:36.666Z,22.40
2023-04-22T23:31:09.045Z,22.40
2023-04-22T23:33:42.572Z,22.60
2023-04-22T23:36:13.620Z,22.40
2023-04-22T23:38:41.862Z,22.30
2023-04-22T23:41:10.035Z,22.30
2023-04-22T23:43:38.204Z,22.40
2023-04-22T23:46:07.904Z,22.10
2023-04-22T23:48:36.126Z,22.00
2023-04-22T23:51:04.351Z,21.70
2023-04-22T23:53:32.523Z,21.60
2023-04-22T23:56:01.285Z,21.90
2023-04-22T23:58:29.785Z,21.80
